Time,TemperatureF,DewpointF,PressureIn,WindDirection,WindDirectionDegrees,WindSpeedMPH,WindSpeedGustMPH,Humidity,HourlyPrecipIn,Conditions,Clouds,dailyrainin,SoftwareType,DateUTC
2013-07-01 00:00:00,70.9,70.9,29.84,NE,39,0.0,0.0,100,0.00,,,1.29,Wunderground v.1.15,2013-07-01 04:00:00,
2013-07-01 00:05:00,70.9,70.9,29.84,NE,39,0.0,0.0,100,0.00,,,0.00,Wunderground v.1.15,2013-07-01 04:05:00,
2013-07-01 00:10:00,70.8,70.8,29.83,NE,39,0.0,0.0,100,0.00,,,0.00,Wunderground v.1.15,2013-07-01 04:10:00,
2013-07-01 00:15:00,70.8,70.8,29.83,NE,39,0.0,0.0,100,0.00,,,0.00,Wunderground v.1.15,2013-07-01 04:15:00,
2013-07-01 00:20:00,70.8,70.8,29.83,NE,39,0.0,0.0,100,0.00,,,0.00,Wunderground v.1.15,2013-07-01 04:20:00,
2013-07-01 00:30:00,70.8,70.8,29.83,NE,39,0.0,0.0,100,0.00,,,0.00,Wunderground v.1.15,2013-07-01 04:30:00,
2013-07-01 00:35:00,70.8,70.8,29.83,NE,39,0.0,1.0,100,0.00,,,0.00,Wunderground v.1.15,2013-07-01 04:35:00,
2013-07-01 00:40:00,70.8,70.8,29.83,NE,39,0.0,0.0,100,0.00,,,0.00,Wunderground v.1.15,2013-07-01 04:40:00,
2013-07-01 00:45:00,70.8,70.8,29.82,NE,39,0.0,0.0,100,0.00,,,0.00,Wunderground v.1.15,2013-07-01 04:45:00,
2013-07-01 00:55:00,70.7,70.7,29.82,NE,39,0.0,0.0,100,0.00,,,0.00,Wunderground v.1.15,2013-07-01 04:55:00,
2013-07-01 01:05:00,70.6,70.6,29.83,NE,39,0.0,1.0,100,0.00,,,0.00,Wunderground v.1.15,2013-07-01 05:05:00,
2013-07-01 01:15:00,70.6,70.6,29.83,NE,39,0.0,0.0,100,0.00,,,0.00,Wunderground v.1.15,2013-07-01 05:15:00,
2013-07-01 01:25:00,70.6,70.6,29.83,NE,39,0.0,0.0,100,0.00,,,0.00,Wunderground v.1.15,2013-07-01 05:25:00,
2013-07-01 01:30:00,70.6,70.6,29.83,NE,39,0.0,0.0,100,0.00,,,0.00,Wunderground v.1.15,2013-07-01 05:30:00,
2013-07-01 01:40:00,70.6,70.6,29.83,NE,39,0.0,0.0,100,0.00,,,0.00,Wunderground v.1.15,2013-07-01 05:40:00,
2013-07-01 01:50:00,70.6,70.6,29.83,NE,39,0.0,0.0,100,0.00,,,0.00,Wunderground v.1.15,2013-07-01 05:50:00,
2013-07-01 02:00:00,70.6,70.6,29.83,NE,39,0.0,0.0,100,0.00,,,0.00,Wunderground v.1.15,2013-07-01 06:00:00,
2013-07-01 02:10:00,70.6,70.6,29.83,NE,39,0.0,0.0,100,0.00,,,0.00,Wunderground v.1.15,2013-07-01 06:10:00,
2013-07-01 02:20:00,70.7,70.7,29.83,NE,39,0.0,0.0,100,0.00,,,0.00,Wunderground v.1.15,2013-07-01 06:20:00,
2013-07-01 02:30:00,70.8,70.8,29.83,NE,39,0.0,0.0,100,0.00,,,0.00,Wunderground v.1.15,2013-07-01 06:30:00,
2013-07-01 02:35:00,70.9,70.9,29.83,NE,39,0.0,0.0,100,0.00,,,0.00,Wunderground v.1.15,2013-07-01 06:35:00,
2013-07-01 02:45:00,71.0,71.0,29.82,NE,39,0.0,0.0,100,0.00,,,0.00,Wunderground v.1.15,2013-07-01 06:45:00,
2013-07-01 02:55:00,71.0,71.0,29.82,NE,39,0.0,0.0,100,0.00,,,0.00,Wunderground v.1.15,2013-07-01 06:55:00,
2013-07-01 03:05:00,71.0,71.0,29.82,NE,39,0.0,0.0,100,0.00,,,0.00,Wunderground v.1.15,2013-07-01 07:05:00,
2013-07-01 03:15:00,71.0,71.0,29.82,NE,39,0.0,0.0,100,0.00,,,0.00,Wunderground v.1.15,2013-07-01 07:15:00,
2013-07-01 03:25:00,71.0,71.0,29.81,NE,39,0.0,0.0,100,0.00,,,0.00,Wunderground v.1.15,2013-07-01 07:25:00,
2013-07-01 03:35:00,71.0,71.0,29.82,NE,39,0.0,0.0,100,0.00,,,0.00,Wunderground v.1.15,2013-07-01 07:35:00,
2013-07-01 03:45:00,71.0,71.0,29.82,NE,39,0.0,0.0,100,0.00,,,0.00,Wunderground v.1.15,2013-07-01 07:45:00,
2013-07-01 03:55:00,71.0,71.0,29.82,NE,39,0.0,0.0,100,0.00,,,0.00,Wunderground v.1.15,2013-07-01 07:55:00,
2013-07-01 04:00:00,71.0,71.0,29.82,NE,39,0.0,0.0,100,0.00,,,0.00,Wunderground v.1.15,2013-07-01 08:00:00,
2013-07-01 04:10:00,71.0,71.0,29.82,NE,39,0.0,0.0,100,0.00,,,0.00,Wunderground v.1.15,2013-07-01 08:10:00,
2013-07-01 04:20:00,71.1,71.1,29.82,NE,39,0.0,0.0,100,0.00,,,0.00,Wunderground v.1.15,2013-07-01 08:20:00,
2013-07-01 04:30:00,71.2,71.2,29.83,NE,39,0.0,0.0,100,0.00,,,0.00,Wunderground v.1.15,2013-07-01 08:30:00,
2013-07-01 04:40:00,71.3,71.3,29.82,NE,39,0.0,0.0,100,0.00,,,0.00,Wunderground v.1.15,2013-07-01 08:40:00,
2013-07-01 04:50:00,71.5,71.5,29.83,NE,39,0.0,0.0,100,0.00,,,0.00,Wunderground v.1.15,2013-07-01 08:50:00,
2013-07-01 05:00:00,71.6,71.6,29.83,NE,39,0.0,0.0,100,0.00,,,0.00,Wunderground v.1.15,2013-07-01 09:00:00,
2013-07-01 05:10:00,71.6,71.6,29.83,NE,39,0.0,0.0,100,0.00,,,0.00,Wunderground v.1.15,2013-07-01 09:10:00,
2013-07-01 05:20:00,71.6,71.6,29.83,NE,39,0.0,0.0,100,0.00,,,0.00,Wunderground v.1.15,2013-07-01 09:20:00,
2013-07-01 05:25:00,71.7,71.7,29.84,NE,39,0.0,0.0,100,0.00,,,0.00,Wunderground v.1.15,2013-07-01 09:25:00,
2013-07-01 05:35:00,71.7,71.7,29.84,NE,39,0.0,0.0,100,0.00,,,0.00,Wunderground v.1.15,2013-07-01 09:35:00,
2013-07-01 05:45:00,71.7,71.7,29.84,NE,39,0.0,0.0,100,0.00,,,0.00,Wunderground v.1.15,2013-07-01 09:45:00,
2013-07-01 05:55:00,71.7,71.7,29.84,NE,39,0.0,0.0,100,0.00,,,0.00,Wunderground v.1.15,2013-07-01 09:55:00,
2013-07-01 06:05:00,71.7,71.7,29.84,NE,39,0.0,0.0,100,0.00,,,0.00,Wunderground v.1.15,2013-07-01 10:05:00,
2013-07-01 06:10:00,71.7,71.7,29.85,NE,39,0.0,0.0,100,0.00,,,0.00,Wunderground v.1.15,2013-07-01 10:10:00,
2013-07-01 06:20:00,71.7,71.7,29.85,NE,39,0.0,0.0,100,0.00,,,0.00,Wunderground v.1.15,2013-07-01 10:20:00,
2013-07-01 06:30:00,71.7,71.7,29.86,NE,39,0.0,0.0,100,0.00,,,0.00,Wunderground v.1.15,2013-07-01 10:30:00,
2013-07-01 06:40:00,71.9,71.9,29.86,NE,39,0.0,0.0,100,0.00,,,0.00,Wunderground v.1.15,2013-07-01 10:40:00,
2013-07-01 06:50:00,72.0,72.0,29.85,NE,39,0.0,0.0,100,0.00,,,0.00,Wunderground v.1.15,2013-07-01 10:50:00,
2013-07-01 07:00:00,72.2,72.2,29.85,NE,39,0.0,0.0,100,0.00,,,0.00,Wunderground v.1.15,2013-07-01 11:00:00,
2013-07-01 07:10:00,72.3,72.3,29.85,NE,39,0.0,0.0,100,0.00,,,0.00,Wunderground v.1.15,2013-07-01 11:10:00,
2013-07-01 07:20:00,72.4,72.4,29.85,NE,39,0.0,0.0,100,0.00,,,0.00,Wunderground v.1.15,2013-07-01 11:20:00,
2013-07-01 07:30:00,72.6,72.6,29.85,NE,39,0.0,0.0,100,0.00,,,0.01,Wunderground v.1.15,2013-07-01 11:30:00,
2013-07-01 07:35:00,72.7,72.7,29.86,NNW,344,0.0,0.0,100,0.00,,,0.01,Wunderground v.1.15,2013-07-01 11:35:00,
2013-07-01 07:45:00,72.8,72.8,29.85,NNW,344,0.0,0.0,100,0.05,,,0.02,Wunderground v.1.15,2013-07-01 11:45:00,
2013-07-01 07:55:00,72.7,72.7,29.88,ENE,59,1.0,1.0,100,0.21,,,0.05,Wunderground v.1.15,2013-07-01 11:55:00,
2013-07-01 08:05:00,70.1,70.1,29.89,NE,46,2.0,5.0,100,0.32,,,0.10,Wunderground v.1.15,2013-07-01 12:05:00,
2013-07-01 08:15:00,69.4,69.4,29.89,NE,56,2.0,2.0,100,0.57,,,0.18,Wunderground v.1.15,2013-07-01 12:15:00,
2013-07-01 08:20:00,69.3,69.3,29.88,ENE,57,1.0,1.0,100,0.56,,,0.22,Wunderground v.1.15,2013-07-01 12:20:00,
2013-07-01 08:30:00,69.2,69.2,29.87,ENE,65,0.0,0.0,100,0.50,,,0.30,Wunderground v.1.15,2013-07-01 12:30:00,
2013-07-01 08:40:00,69.1,69.1,29.89,ENE,65,0.0,0.0,100,0.37,,,0.37,Wunderground v.1.15,2013-07-01 12:40:00,
2013-07-01 08:50:00,69.2,69.2,29.88,ENE,65,0.0,0.0,100,0.31,,,0.42,Wunderground v.1.15,2013-07-01 12:50:00,
2013-07-01 09:00:00,69.4,69.4,29.89,ENE,65,0.0,0.0,100,0.30,,,0.48,Wunderground v.1.15,2013-07-01 13:00:00,
2013-07-01 09:10:00,69.7,69.7,29.90,ENE,65,0.0,0.0,100,0.35,,,0.53,Wunderground v.1.15,2013-07-01 13:10:00,
2013-07-01 09:15:00,69.8,69.8,29.90,ENE,65,0.0,0.0,100,0.34,,,0.56,Wunderground v.1.15,2013-07-01 13:15:00,
2013-07-01 09:25:00,70.2,70.2,29.90,ENE,65,0.0,0.0,100,0.33,,,0.62,Wunderground v.1.15,2013-07-01 13:25:00,
2013-07-01 09:35:00,70.6,70.6,29.90,ENE,65,0.0,0.0,100,0.30,,,0.67,Wunderground v.1.15,2013-07-01 13:35:00,
2013-07-01 09:45:00,71.2,71.2,29.90,ENE,65,0.0,0.0,100,0.31,,,0.72,Wunderground v.1.15,2013-07-01 13:45:00,
2013-07-01 09:55:00,71.5,71.5,29.90,ENE,65,0.0,0.0,100,0.27,,,0.76,Wunderground v.1.15,2013-07-01 13:55:00,
2013-07-01 10:05:00,71.9,71.9,29.89,ENE,65,0.0,0.0,100,0.23,,,0.80,Wunderground v.1.15,2013-07-01 14:05:00,
2013-07-01 10:15:00,73.1,73.1,29.90,South,176,1.0,1.0,100,0.24,,,0.84,Wunderground v.1.15,2013-07-01 14:15:00,
2013-07-01 10:20:00,73.5,73.5,29.90,WNW,283,0.0,0.0,100,0.24,,,0.86,Wunderground v.1.15,2013-07-01 14:20:00,
2013-07-01 10:30:00,73.1,73.1,29.90,North,355,1.0,1.0,100,0.21,,,0.90,Wunderground v.1.15,2013-07-01 14:30:00,
2013-07-01 10:40:00,73.2,73.2,29.90,West,271,0.0,0.0,100,0.14,,,0.92,Wunderground v.1.15,2013-07-01 14:40:00,
2013-07-01 10:50:00,73.1,73.1,29.90,West,271,0.0,0.0,100,0.04,,,0.92,Wunderground v.1.15,2013-07-01 14:50:00,
2013-07-01 11:00:00,73.6,73.6,29.90,West,271,0.0,0.0,100,0.00,,,0.92,Wunderground v.1.15,2013-07-01 15:00:00,
2013-07-01 11:05:00,73.8,73.8,29.90,West,271,0.0,0.0,100,0.00,,,0.92,Wunderground v.1.15,2013-07-01 15:05:00,
2013-07-01 11:15:00,74.4,74.4,29.90,ENE,69,0.0,2.0,100,0.00,,,0.92,Wunderground v.1.15,2013-07-01 15:15:00,
2013-07-01 11:25:00,74.6,74.6,29.90,East,83,0.0,1.0,100,0.00,,,0.92,Wunderground v.1.15,2013-07-01 15:25:00,
2013-07-01 11:35:00,75.1,75.1,29.90,East,82,0.0,1.0,100,0.00,,,0.92,Wunderground v.1.15,2013-07-01 15:35:00,
2013-07-01 11:45:00,75.7,75.4,29.90,East,82,0.0,1.0,99,0.00,,,0.92,Wunderground v.1.15,2013-07-01 15:45:00,
2013-07-01 11:50:00,75.6,75.0,29.90,East,82,0.0,2.0,98,0.00,,,0.92,Wunderground v.1.15,2013-07-01 15:50:00,
2013-07-01 12:00:00,75.7,75.1,29.90,NE,36,1.0,1.0,98,0.00,,,0.92,Wunderground v.1.15,2013-07-01 16:00:00,
2013-07-01 12:10:00,76.2,75.9,29.90,NE,36,0.0,0.0,99,0.00,,,0.92,Wunderground v.1.15,2013-07-01 16:10:00,
2013-07-01 12:20:00,76.9,75.4,29.90,WSW,238,0.0,0.0,95,0.00,,,0.92,Wunderground v.1.15,2013-07-01 16:20:00,
2013-07-01 12:30:00,77.1,75.6,29.90,SW,233,0.0,0.0,95,0.00,,,0.92,Wunderground v.1.15,2013-07-01 16:30:00,
2013-07-01 12:40:00,76.7,75.2,29.90,SW,233,0.0,0.0,95,0.00,,,0.92,Wunderground v.1.15,2013-07-01 16:40:00,
2013-07-01 12:50:00,76.5,75.3,29.90,NNE,13,0.0,0.0,96,0.00,,,0.92,Wunderground v.1.15,2013-07-01 16:50:00,
2013-07-01 13:01:00,76.2,74.7,29.90,NNE,13,0.0,0.0,95,0.00,,,0.92,Wunderground v.1.15,2013-07-01 17:01:00,
2013-07-01 13:10:00,76.2,75.0,29.90,NNE,13,0.0,0.0,96,0.00,,,0.92,Wunderground v.1.15,2013-07-01 17:10:00,
2013-07-01 13:15:00,76.2,74.7,29.90,NNE,13,0.0,0.0,95,0.00,,,0.92,Wunderground v.1.15,2013-07-01 17:15:00,
2013-07-01 13:20:00,76.1,74.9,29.90,NNE,13,0.0,0.0,96,0.00,,,0.92,Wunderground v.1.15,2013-07-01 17:20:00,
2013-07-01 13:30:00,76.4,75.2,29.90,NNE,13,0.0,0.0,96,0.00,,,0.92,Wunderground v.1.15,2013-07-01 17:30:00,
2013-07-01 13:40:00,76.9,75.0,29.90,NNE,13,0.0,0.0,94,0.00,,,0.92,Wunderground v.1.15,2013-07-01 17:40:00,
2013-07-01 13:50:00,77.5,75.0,29.90,NE,51,0.0,0.0,92,0.00,,,0.92,Wunderground v.1.15,2013-07-01 17:50:00,
2013-07-01 14:00:00,77.5,75.6,29.90,NE,51,0.0,0.0,94,0.00,,,0.92,Wunderground v.1.15,2013-07-01 18:00:00,
2013-07-01 14:05:00,77.4,75.5,29.90,NE,51,0.0,0.0,94,0.00,,,0.92,Wunderground v.1.15,2013-07-01 18:05:00,
2013-07-01 14:10:00,77.5,75.6,29.90,NE,51,0.0,0.0,94,0.00,,,0.92,Wunderground v.1.15,2013-07-01 18:10:00,
2013-07-01 14:20:00,77.4,75.9,29.90,NE,51,0.0,0.0,95,0.00,,,0.92,Wunderground v.1.15,2013-07-01 18:20:00,
2013-07-01 14:30:00,77.7,75.5,29.90,NE,51,0.0,0.0,93,0.00,,,0.92,Wunderground v.1.15,2013-07-01 18:30:00,
2013-07-01 14:40:00,78.3,75.8,29.90,NNE,30,0.0,0.0,92,0.00,,,0.92,Wunderground v.1.15,2013-07-01 18:40:00,
2013-07-01 14:50:00,79.3,76.8,29.90,NNE,30,0.0,1.0,92,0.00,,,0.92,Wunderground v.1.15,2013-07-01 18:50:00,
2013-07-01 15:00:00,80.2,76.7,29.89,North,355,0.0,0.0,89,0.00,,,0.92,Wunderground v.1.15,2013-07-01 19:00:00,
2013-07-01 15:10:00,79.6,77.1,29.89,North,355,0.0,0.0,92,0.00,,,0.92,Wunderground v.1.15,2013-07-01 19:10:00,
2013-07-01 15:20:00,79.6,76.7,29.89,North,355,0.0,0.0,91,0.00,,,0.92,Wunderground v.1.15,2013-07-01 19:20:00,
2013-07-01 15:30:00,78.8,76.3,29.90,North,355,0.0,0.0,92,0.00,,,0.92,Wunderground v.1.15,2013-07-01 19:30:00,
2013-07-01 15:40:00,78.5,76.3,29.89,North,355,0.0,0.0,93,0.00,,,0.92,Wunderground v.1.15,2013-07-01 19:40:00,
2013-07-01 15:50:00,78.3,76.4,29.90,North,355,0.0,0.0,94,0.00,,,0.92,Wunderground v.1.15,2013-07-01 19:50:00,
2013-07-01 16:00:00,78.1,76.2,29.89,North,355,0.0,0.0,94,0.00,,,0.92,Wunderground v.1.15,2013-07-01 20:00:00,
2013-07-01 16:05:00,78.1,75.9,29.89,NNW,348,0.0,1.0,93,0.00,,,0.92,Wunderground v.1.15,2013-07-01 20:05:00,
2013-07-01 16:15:00,78.2,76.0,29.89,NNW,348,0.0,0.0,93,0.00,,,0.92,Wunderground v.1.15,2013-07-01 20:15:00,
2013-07-01 16:25:00,78.3,76.1,29.90,NNW,327,0.0,0.0,93,0.00,,,0.92,Wunderground v.1.15,2013-07-01 20:25:00,
2013-07-01 16:35:00,78.7,77.5,29.89,NNW,327,0.0,0.0,96,0.00,,,0.92,Wunderground v.1.15,2013-07-01 20:35:00,
2013-07-01 16:45:00,78.2,76.3,29.89,NNW,327,1.0,2.0,94,0.00,,,0.92,Wunderground v.1.15,2013-07-01 20:45:00,
2013-07-01 16:55:00,78.5,76.6,29.89,East,92,1.0,3.0,94,0.00,,,0.92,Wunderground v.1.15,2013-07-01 20:55:00,
2013-07-01 17:00:00,78.7,76.5,29.89,East,92,2.0,2.0,93,0.00,,,0.92,Wunderground v.1.15,2013-07-01 21:00:00,
2013-07-01 17:10:00,78.6,76.4,29.89,East,92,1.0,1.0,93,0.00,,,0.92,Wunderground v.1.15,2013-07-01 21:10:00,
2013-07-01 17:20:00,79.2,77.0,29.89,ESE,103,1.0,2.0,93,0.00,,,0.92,Wunderground v.1.15,2013-07-01 21:20:00,
2013-07-01 17:30:00,78.8,76.3,29.89,ESE,119,2.0,2.0,92,0.00,,,0.92,Wunderground v.1.15,2013-07-01 21:30:00,
2013-07-01 17:40:00,78.3,75.8,29.89,ESE,119,1.0,1.0,92,0.00,,,0.92,Wunderground v.1.15,2013-07-01 21:40:00,
2013-07-01 17:50:00,78.3,75.8,29.89,ESE,120,1.0,3.0,92,0.00,,,0.92,Wunderground v.1.15,2013-07-01 21:50:00,
2013-07-01 18:00:00,78.1,75.9,29.89,ESE,119,1.0,1.0,93,0.00,,,0.92,Wunderground v.1.15,2013-07-01 22:00:00,
2013-07-01 18:10:00,77.7,75.8,29.89,ESE,107,2.0,2.0,94,0.00,,,0.92,Wunderground v.1.15,2013-07-01 22:10:00,
2013-07-01 18:15:00,77.5,75.6,29.89,ESE,107,1.0,2.0,94,0.00,,,0.92,Wunderground v.1.15,2013-07-01 22:15:00,
2013-07-01 18:25:00,77.1,75.2,29.90,ESE,107,1.0,1.0,94,0.00,,,0.92,Wunderground v.1.15,2013-07-01 22:25:00,
2013-07-01 18:35:00,76.9,74.7,29.90,ESE,113,1.0,2.0,93,0.00,,,0.92,Wunderground v.1.15,2013-07-01 22:35:00,
2013-07-01 18:45:00,76.5,74.6,29.90,ESE,113,0.0,1.0,94,0.00,,,0.92,Wunderground v.1.15,2013-07-01 22:45:00,
2013-07-01 18:55:00,76.2,74.3,29.91,ESE,113,0.0,1.0,94,0.00,,,0.92,Wunderground v.1.15,2013-07-01 22:55:00,
2013-07-01 19:05:00,75.9,74.4,29.91,ESE,113,1.0,1.0,95,0.00,,,0.92,Wunderground v.1.15,2013-07-01 23:05:00,
2013-07-01 19:15:00,75.7,74.2,29.91,ENE,68,1.0,2.0,95,0.00,,,0.92,Wunderground v.1.15,2013-07-01 23:15:00,
2013-07-01 19:25:00,75.6,74.1,29.92,NE,40,1.0,2.0,95,0.00,,,0.92,Wunderground v.1.15,2013-07-01 23:25:00,
2013-07-01 19:35:00,75.5,74.0,29.93,NE,40,1.0,1.0,95,0.00,,,0.92,Wunderground v.1.15,2013-07-01 23:35:00,
2013-07-01 19:40:00,75.5,74.0,29.93,NE,40,1.0,1.0,95,0.00,,,0.92,Wunderground v.1.15,2013-07-01 23:40:00,
2013-07-01 19:50:00,75.4,74.2,29.93,NE,40,0.0,1.0,96,0.00,,,0.92,Wunderground v.1.15,2013-07-01 23:50:00,
2013-07-01 20:00:00,75.3,74.1,29.93,NE,40,0.0,0.0,96,0.00,,,0.92,Wunderground v.1.15,2013-07-02 00:00:00,
2013-07-01 20:10:00,75.2,74.3,29.93,NE,40,0.0,0.0,97,0.00,,,0.92,Wunderground v.1.15,2013-07-02 00:10:00,
2013-07-01 20:20:00,75.1,73.9,29.93,NE,40,0.0,0.0,96,0.00,,,0.92,Wunderground v.1.15,2013-07-02 00:20:00,
2013-07-01 20:25:00,75.1,74.2,29.93,NE,40,0.0,0.0,97,0.00,,,0.92,Wunderground v.1.15,2013-07-02 00:25:00,
2013-07-01 20:35:00,75.0,74.1,29.93,NE,40,0.0,1.0,97,0.00,,,0.92,Wunderground v.1.15,2013-07-02 00:35:00,
2013-07-01 20:45:00,74.9,74.0,29.93,NE,40,0.0,0.0,97,0.00,,,0.92,Wunderground v.1.15,2013-07-02 00:45:00,
2013-07-01 20:55:00,74.9,74.0,29.93,NE,40,0.0,1.0,97,0.00,,,0.92,Wunderground v.1.15,2013-07-02 00:55:00,
2013-07-01 21:05:00,74.7,74.1,29.93,NE,50,1.0,1.0,98,0.00,,,0.92,Wunderground v.1.15,2013-07-02 01:05:00,
2013-07-01 21:15:00,74.6,74.0,29.94,NE,50,0.0,0.0,98,0.00,,,0.92,Wunderground v.1.15,2013-07-02 01:15:00,
2013-07-01 21:25:00,74.6,74.0,29.94,NE,50,0.0,0.0,98,0.00,,,0.92,Wunderground v.1.15,2013-07-02 01:25:00,
2013-07-01 21:35:00,74.5,73.9,29.94,NE,50,1.0,1.0,98,0.00,,,0.92,Wunderground v.1.15,2013-07-02 01:35:00,
2013-07-01 21:45:00,74.4,73.8,29.95,NE,50,0.0,1.0,98,0.00,,,0.92,Wunderground v.1.15,2013-07-02 01:45:00,
2013-07-01 21:50:00,74.4,73.8,29.95,NE,50,0.0,0.0,98,0.00,,,0.92,Wunderground v.1.15,2013-07-02 01:50:00,
2013-07-01 22:00:00,74.4,73.8,29.96,NE,49,0.0,0.0,98,0.00,,,0.92,Wunderground v.1.15,2013-07-02 02:00:00,
2013-07-01 22:10:00,74.4,73.8,29.96,NE,50,0.0,0.0,98,0.00,,,0.92,Wunderground v.1.15,2013-07-02 02:10:00,
2013-07-01 22:20:00,74.3,73.7,29.96,NE,49,0.0,0.0,98,0.00,,,0.92,Wunderground v.1.15,2013-07-02 02:20:00,
2013-07-01 22:30:00,74.3,73.7,29.96,NE,50,0.0,1.0,98,0.00,,,0.92,Wunderground v.1.15,2013-07-02 02:30:00,
2013-07-01 22:40:00,74.2,73.6,29.96,NE,50,1.0,1.0,98,0.00,,,0.92,Wunderground v.1.15,2013-07-02 02:40:00,
2013-07-01 22:50:00,74.2,73.6,29.96,NE,50,0.0,0.0,98,0.00,,,0.92,Wunderground v.1.15,2013-07-02 02:50:00,
2013-07-01 23:00:00,74.1,73.8,29.96,NE,46,1.0,1.0,99,0.00,,,0.92,Wunderground v.1.15,2013-07-02 03:00:00,
2013-07-01 23:05:00,74.2,73.9,29.95,NE,46,0.0,1.0,99,0.00,,,0.92,Wunderground v.1.15,2013-07-02 03:05:00,
2013-07-01 23:15:00,74.1,73.8,29.96,NE,46,0.0,0.0,99,0.00,,,0.92,Wunderground v.1.15,2013-07-02 03:15:00,
2013-07-01 23:25:00,74.1,73.8,29.96,NE,46,0.0,0.0,99,0.00,,,0.92,Wunderground v.1.15,2013-07-02 03:25:00,
2013-07-01 23:35:00,74.0,73.7,29.96,NE,46,0.0,0.0,99,0.00,,,0.92,Wunderground v.1.15,2013-07-02 03:35:00,
2013-07-01 23:45:00,74.0,74.0,29.97,NE,46,0.0,0.0,100,0.00,,,0.92,Wunderground v.1.15,2013-07-02 03:45:00,
2013-07-01 23:50:00,74.0,74.0,29.97,NE,46,0.0,0.0,100,0.00,,,0.92,Wunderground v.1.15,2013-07-02 03:50:00,
2013-07-01 23:56:00,73.9,73.9,29.97,NE,46,0.0,0.0,100,0.00,,,0.92,Wunderground v.1.15,2013-07-02 03:56:00,